createdAt,value
2023-04-29T00:03:46.755Z,14.57
2023-04-29T00:08:10.713Z,17.88
2023-04-29T00:12:34.700Z,16.15
2023-04-29T00:17:00.217Z,17.57
2023-04-29T00:21:24.634Z,16.90
2023-04-29T00:25:48.483Z,14.82
2023-04-29T00:30:12.875Z,14.40
2023-04-29T00:34:38.081Z,15.20
2023-04-29T00:39:02.114Z,15.25
2023-04-29T00:43:26.271Z,14.65
2023-04-29T00:47:50.209Z,16.33
2023-04-29T00:52:16.947Z,15.38
2023-04-29T00:56:42.739Z,13.13
2023-04-29T01:01:07.515Z,16.10
2023-04-29T01:05:31.685Z,13.90
2023-04-29T01:10:05.128Z,13.90
2023-04-29T01:14:29.835Z,16.38
2023-04-29T01:18:57.748Z,14.80
2023-04-29T01:23:29.240Z,15.25
2023-04-29T01:28:02.867Z,13.57
2023-04-29T01:32:35.405Z,13.30
2023-04-29T01:37:11.587Z,14.63
2023-04-29T01:41:45.424Z,13.38
2023-04-29T01:46:20.389Z,14.10
2023-04-29T01:50:46.473Z,16.20
2023-04-29T01:55:09.202Z,14.85
2023-04-29T01:59:37.414Z,15.13
2023-04-29T02:04:24.374Z,14.37
2023-04-29T02:08:42.656Z,16.15
2023-04-29T02:13:01.376Z,15.25
2023-04-29T02:17:23.342Z,13.77
2023-04-29T02:21:43.115Z,12.27
2023-04-29T02:26:01.715Z,13.93
2023-04-29T02:30:22.170Z,13.57
2023-04-29T02:34:49.317Z,13.60
2023-04-29T02:39:15.973Z,14.73
2023-04-29T02:43:49.452Z,15.50
2023-04-29T02:48:13.791Z,14.90
2023-04-29T02:52:41.906Z,15.70
2023-04-29T02:57:05.758Z,14.38
2023-04-29T03:01:30.317Z,15.30
2023-04-29T03:05:55.550Z,15.73
2023-04-29T03:10:20.987Z,16.58
2023-04-29T03:14:45.030Z,16.90
2023-04-29T03:19:10.580Z,17.92
2023-04-29T03:23:34.408Z,16.92
2023-04-29T03:28:00.972Z,18.58
2023-04-29T03:32:25.382Z,19.53
2023-04-29T03:36:49.484Z,20.98
2023-04-29T03:41:13.641Z,19.25
2023-04-29T03:45:38.906Z,20.00
2023-04-29T03:50:04.480Z,19.67
2023-04-29T03:54:28.722Z,19.20
2023-04-29T03:58:52.729Z,21.07
2023-04-29T04:03:19.963Z,21.17
2023-04-29T04:07:44.113Z,19.13
2023-04-29T04:12:31.173Z,23.35
2023-04-29T04:16:55.754Z,20.33
2023-04-29T04:21:22.247Z,20.52
2023-04-29T04:25:56.600Z,21.13
2023-04-29T04:30:58.656Z,20.23
2023-04-29T04:35:23.036Z,19.52
2023-04-29T04:39:50.381Z,21.65
2023-04-29T04:44:15.652Z,22.73
2023-04-29T04:48:58.068Z,20.98
2023-04-29T04:53:24.366Z,19.70
2023-04-29T04:57:54.679Z,19.45
2023-04-29T05:02:18.925Z,18.80
2023-04-29T05:06:43.349Z,19.00
2023-04-29T05:11:07.473Z,19.80
2023-04-29T05:15:33.776Z,19.97
2023-04-29T05:19:59.099Z,17.90
2023-04-29T05:24:23.308Z,18.92
2023-04-29T05:28:47.720Z,17.83
2023-04-29T05:33:14.551Z,16.50
2023-04-29T05:37:40.826Z,14.90
2023-04-29T05:42:27.244Z,13.85
2023-04-29T05:46:51.966Z,13.03
2023-04-29T05:51:18.968Z,14.50
2023-04-29T05:55:45.250Z,13.55
2023-04-29T06:00:10.693Z,13.07
2023-04-29T06:04:42.197Z,14.15
2023-04-29T06:09:28.199Z,15.30
2023-04-29T06:13:58.007Z,15.20
2023-04-29T06:18:22.197Z,13.75
2023-04-29T06:22:46.042Z,14.85
2023-04-29T06:27:11.542Z,13.18
2023-04-29T06:31:35.897Z,11.20
2023-04-29T06:36:01.499Z,11.07
2023-04-29T06:41:01.163Z,11.55
2023-04-29T06:45:54.126Z,10.43
2023-04-29T06:50:21.981Z,12.85
2023-04-29T06:54:45.986Z,11.95
2023-04-29T06:59:12.169Z,12.83
2023-04-29T07:03:37.888Z,11.57
2023-04-29T07:08:02.518Z,11.43
2023-04-29T07:12:26.464Z,11.52
2023-04-29T07:16:55.464Z,10.10
2023-04-29T07:21:21.022Z,10.70
2023-04-29T07:25:45.315Z,10.98
2023-04-29T07:30:10.226Z,11.13
2023-04-29T07:34:34.261Z,11.75
2023-04-29T07:39:00.553Z,9.77
2023-04-29T07:43:24.705Z,10.60
2023-04-29T07:47:49.222Z,11.40
2023-04-29T07:52:13.195Z,11.07
2023-04-29T07:56:39.264Z,11.63
2023-04-29T08:01:08.737Z,12.70
2023-04-29T08:05:33.705Z,13.45
2023-04-29T08:09:58.158Z,12.70
2023-04-29T08:14:23.592Z,15.23
2023-04-29T08:18:47.546Z,14.98
2023-04-29T08:23:12.023Z,15.40
2023-04-29T08:27:36.061Z,15.97
2023-04-29T08:32:01.546Z,15.75
2023-04-29T08:36:25.668Z,14.95
2023-04-29T08:40:49.573Z,15.60
2023-04-29T08:45:17.418Z,16.20
2023-04-29T08:49:43.437Z,12.82
2023-04-29T08:54:07.687Z,15.00
2023-04-29T08:58:35.385Z,13.03
2023-04-29T09:03:01.918Z,14.15
2023-04-29T09:07:28.627Z,15.27
2023-04-29T09:11:52.649Z,16.30
2023-04-29T09:16:16.568Z,12.65
2023-04-29T09:20:40.836Z,14.48
2023-04-29T09:25:15.285Z,14.07
2023-04-29T09:29:39.444Z,11.83
2023-04-29T09:34:03.358Z,12.32
2023-04-29T09:38:27.611Z,13.90
2023-04-29T09:42:56.333Z,12.40
2023-04-29T09:47:31.737Z,10.48
2023-04-29T09:51:57.434Z,12.13
2023-04-29T09:56:21.610Z,10.57
2023-04-29T10:00:54.644Z,10.00
2023-04-29T10:05:19.345Z,11.43
2023-04-29T10:09:43.490Z,9.45
2023-04-29T10:14:13.482Z,8.97
2023-04-29T10:18:42.211Z,9.25
2023-04-29T10:23:07.092Z,9.50
2023-04-29T10:27:35.597Z,8.97
2023-04-29T10:32:01.249Z,8.25
2023-04-29T10:36:30.263Z,8.63
2023-04-29T10:40:55.028Z,9.30
2023-04-29T10:45:23.079Z,9.52
2023-04-29T10:50:03.461Z,10.90
2023-04-29T10:54:29.363Z,9.77
2023-04-29T10:58:53.500Z,12.47
2023-04-29T11:03:47.470Z,12.57
2023-04-29T11:08:13.056Z,13.60
2023-04-29T11:12:38.537Z,13.03
2023-04-29T11:17:04.824Z,14.95
2023-04-29T11:21:29.296Z,17.13
2023-04-29T11:25:53.220Z,16.10
2023-04-29T11:30:19.500Z,18.55
2023-04-29T11:34:43.428Z,17.23
2023-04-29T11:39:07.849Z,17.75
2023-04-29T11:43:32.125Z,17.73
2023-04-29T11:47:57.572Z,17.45
2023-04-29T11:52:21.839Z,18.00
2023-04-29T11:56:46.291Z,19.33
2023-04-29T12:01:10.676Z,16.48
2023-04-29T12:05:36.456Z,19.95
2023-04-29T12:10:00.439Z,17.27
2023-04-29T12:14:28.099Z,17.70
2023-04-29T12:18:56.075Z,16.88
2023-04-29T12:23:23.846Z,17.33
2023-04-29T12:27:47.777Z,16.63
2023-04-29T12:32:19.810Z,17.38
2023-04-29T12:36:44.337Z,16.40
2023-04-29T12:41:13.673Z,15.00
2023-04-29T12:45:37.713Z,13.48
2023-04-29T12:50:03.003Z,12.85
2023-04-29T12:54:29.198Z,13.20
2023-04-29T12:58:58.974Z,11.35
2023-04-29T13:03:23.906Z,10.60
2023-04-29T13:07:48.254Z,11.02
2023-04-29T13:12:12.419Z,11.87
2023-04-29T13:16:38.576Z,11.98
2023-04-29T13:21:04.291Z,11.23
2023-04-29T13:25:28.679Z,9.83
2023-04-29T13:29:52.696Z,9.52
2023-04-29T13:34:18.018Z,13.43
2023-04-29T13:38:43.875Z,13.10
2023-04-29T13:43:09.700Z,13.00
2023-04-29T13:47:42.263Z,12.63
2023-04-29T14:05:48.123Z,14.18
2023-04-29T14:10:14.000Z,12.30
2023-04-29T14:14:41.496Z,10.48
2023-04-29T14:19:09.599Z,10.70
2023-04-29T14:23:33.651Z,11.73
2023-04-29T14:27:58.953Z,9.88
2023-04-29T14:32:26.606Z,12.27
2023-04-29T14:36:51.311Z,10.02
2023-04-29T14:41:21.085Z,10.60
2023-04-29T14:45:46.668Z,12.40
2023-04-29T14:50:12.024Z,9.98
2023-04-29T14:54:36.582Z,9.57
2023-04-29T14:59:04.300Z,9.32
2023-04-29T15:03:30.101Z,10.52
2023-04-29T15:07:54.514Z,10.33
2023-04-29T15:12:22.343Z,10.63
2023-04-29T15:16:46.943Z,11.25
2023-04-29T15:21:12.621Z,11.63
2023-04-29T15:25:36.766Z,10.67
2023-04-29T15:30:00.758Z,10.35
2023-04-29T15:34:24.736Z,10.57
2023-04-29T15:38:50.138Z,11.07
2023-04-29T15:43:15.112Z,10.35
2023-04-29T15:47:39.414Z,10.85
2023-04-29T15:52:05.854Z,11.60
2023-04-29T15:56:31.997Z,10.00
2023-04-29T16:00:56.499Z,9.48
2023-04-29T16:05:20.540Z,9.80
2023-04-29T16:09:46.070Z,10.27
2023-04-29T16:14:11.615Z,10.82
2023-04-29T16:18:35.673Z,10.20
2023-04-29T16:22:59.662Z,10.33
2023-04-29T16:27:23.702Z,10.98
2023-04-29T16:31:49.436Z,11.73
2023-04-29T16:36:15.137Z,10.57
2023-04-29T16:40:39.364Z,9.85
2023-04-29T16:45:04.206Z,10.25
2023-04-29T16:49:31.337Z,11.10
2023-04-29T16:53:55.386Z,9.20
2023-04-29T16:58:19.662Z,9.82
2023-04-29T17:02:45.988Z,11.68
2023-04-29T17:07:13.914Z,12.13
2023-04-29T17:11:37.854Z,10.13
2023-04-29T17:16:01.966Z,10.40
2023-04-29T17:20:26.082Z,10.23
2023-04-29T17:24:51.747Z,9.95
2023-04-29T17:29:15.838Z,11.18
2023-04-29T17:33:40.099Z,11.23
2023-04-29T17:38:04.788Z,10.23
2023-04-29T17:42:32.975Z,10.02
2023-04-29T17:46:57.806Z,10.25
2023-04-29T17:51:22.180Z,11.90
2023-04-29T17:55:49.516Z,10.02
2023-04-29T18:00:19.269Z,11.02
2023-04-29T18:04:44.175Z,12.17
2023-04-29T18:09:11.895Z,11.25
2023-04-29T18:13:39.182Z,12.43
2023-04-29T18:18:06.101Z,11.82
2023-04-29T18:22:34.133Z,12.23
2023-04-29T18:26:59.857Z,12.10
2023-04-29T18:31:26.540Z,11.63
2023-04-29T18:35:55.532Z,13.93
2023-04-29T18:40:20.007Z,12.10
2023-04-29T18:44:45.756Z,12.68
2023-04-29T18:49:16.117Z,12.53
2023-04-29T18:53:44.519Z,14.55
2023-04-29T18:58:10.348Z,14.65
2023-04-29T19:02:34.591Z,14.35
2023-04-29T19:07:00.221Z,12.83
2023-04-29T19:11:19.187Z,15.35
2023-04-29T19:15:43.938Z,13.85
2023-04-29T19:20:10.097Z,13.83
2023-04-29T19:24:36.959Z,14.73
2023-04-29T19:29:02.719Z,14.40
2023-04-29T19:33:26.935Z,14.70
2023-04-29T19:37:54.162Z,14.05
2023-04-29T19:42:18.162Z,12.90
2023-04-29T19:46:46.902Z,13.25
2023-04-29T19:51:21.732Z,12.30
2023-04-29T19:55:45.907Z,12.18
2023-04-29T20:00:11.807Z,13.25
2023-04-29T20:04:40.721Z,12.77
2023-04-29T20:09:05.193Z,14.68
2023-04-29T20:13:29.684Z,12.95
2023-04-29T20:17:53.674Z,13.30
2023-04-29T20:22:21.433Z,11.85
2023-04-29T20:26:45.625Z,10.63
2023-04-29T20:31:09.694Z,12.30
2023-04-29T20:35:35.234Z,12.00
2023-04-29T20:40:00.810Z,12.02
2023-04-29T20:44:25.440Z,12.25
2023-04-29T20:48:49.734Z,12.00
2023-04-29T20:53:17.031Z,12.68
2023-04-29T20:57:42.621Z,14.20
2023-04-29T21:02:06.526Z,12.37
2023-04-29T21:06:31.717Z,12.00
2023-04-29T21:10:55.986Z,13.85
2023-04-29T21:15:21.362Z,12.95
2023-04-29T21:19:45.525Z,12.57
2023-04-29T21:24:09.890Z,11.32
2023-04-29T21:28:34.227Z,11.38
2023-04-29T21:32:59.691Z,13.63
2023-04-29T21:37:33.772Z,13.65
2023-04-29T21:41:59.230Z,13.13
2023-04-29T21:46:23.119Z,12.57
2023-04-29T21:50:48.976Z,11.88
2023-04-29T21:55:13.100Z,13.95
2023-04-29T21:59:37.300Z,11.55
2023-04-29T22:04:04.119Z,11.70
2023-04-29T22:08:29.852Z,10.90
2023-04-29T22:12:54.175Z,12.52
2023-04-29T22:17:18.626Z,11.60
2023-04-29T22:21:43.111Z,11.82
2023-04-29T22:26:09.029Z,12.85
2023-04-29T22:30:33.211Z,11.30
2023-04-29T22:34:59.953Z,13.63
2023-04-29T22:39:24.909Z,11.68
2023-04-29T22:43:52.130Z,12.68
2023-04-29T22:48:16.231Z,14.27
2023-04-29T22:52:40.504Z,12.45
2023-04-29T22:57:05.121Z,12.00
2023-04-29T23:01:31.450Z,13.93
2023-04-29T23:05:59.541Z,11.43
2023-04-29T23:10:23.867Z,12.60
2023-04-29T23:14:51.010Z,14.73
2023-04-29T23:19:16.702Z,14.93
2023-04-29T23:23:41.398Z,12.43
2023-04-29T23:27:59.317Z,11.85
2023-04-29T23:32:24.441Z,10.83
2023-04-29T23:36:49.822Z,9.43
2023-04-29T23:41:14.243Z,10.80
2023-04-29T23:45:38.218Z,9.27
2023-04-29T23:50:02.554Z,8.90
2023-04-29T23:54:28.181Z,8.98
2023-04-29T23:58:52.349Z,8.40
